Time;durP1;ratioP1;P1;durP2;ratioP2;P2;SDS_P1;SDS_P2;PMS_P1;PMS_P2;Temp;Humidity;BMP_temperature;BMP_pressure;BME280_temperature;BME280_humidity;BME280_pressure;Samples;Min_cycle;Max_cycle;Signal;HPM_P1;HPM_P2
2023/09/07 00:01:14;;;;;;;5.50;4.83;;;18.50;99.90;;;;;;5053918;28;20440;-59
2023/09/07 00:03:41;;;;;;;5.90;5.10;;;18.50;99.90;;;;;;5053457;28;20999;-59
2023/09/07 00:06:08;;;;;;;5.10;4.60;;;18.50;99.90;;;;;;5053407;28;20474;-59
2023/09/07 00:08:35;;;;;;;6.40;5.40;;;18.40;99.90;;;;;;5053644;28;20436;-60
2023/09/07 00:11:04;;;;;;;9.50;5.77;;;18.40;99.90;;;;;;5053399;28;20436;-59
2023/09/07 00:13:31;;;;;;;9.80;5.17;;;18.40;99.90;;;;;;5053222;28;20468;-60
2023/09/07 00:16:01;;;;;;;6.80;5.20;;;18.30;99.90;;;;;;5053149;28;20812;-59
2023/09/07 00:18:28;;;;;;;7.40;5.63;;;18.30;99.90;;;;;;5053219;28;20440;-59
2023/09/07 00:20:55;;;;;;;7.43;5.97;;;18.20;99.90;;;;;;5053149;28;20448;-59
2023/09/07 00:23:22;;;;;;;6.17;5.03;;;18.20;99.90;;;;;;5053084;28;20835;-60
2023/09/07 00:25:48;;;;;;;6.23;5.30;;;18.10;99.90;;;;;;5052932;28;20431;-59
2023/09/07 00:28:15;;;;;;;7.80;5.50;;;18.10;99.90;;;;;;5055869;28;20438;-60
2023/09/07 00:30:42;;;;;;;6.27;5.17;;;18.10;99.90;;;;;;5057065;28;20451;-59
2023/09/07 00:33:11;;;;;;;7.87;5.60;;;18.10;99.90;;;;;;5057231;28;20467;-59
2023/09/07 00:35:38;;;;;;;8.00;5.67;;;18.10;99.90;;;;;;5058108;28;20849;-60
2023/09/07 00:38:05;;;;;;;7.60;5.93;;;18.00;99.90;;;;;;5057660;28;20476;-60
2023/09/07 00:40:31;;;;;;;6.80;5.70;;;18.00;99.90;;;;;;5056982;28;20447;-59
2023/09/07 00:42:59;;;;;;;6.17;5.57;;;18.00;99.90;;;;;;5057464;28;20483;-58
2023/09/07 00:45:26;;;;;;;7.60;4.87;;;18.00;99.90;;;;;;5058553;28;20444;-60
2023/09/07 00:47:53;;;;;;;6.10;5.50;;;17.90;99.90;;;;;;5057994;28;20455;-59
2023/09/07 00:50:22;;;;;;;6.13;5.63;;;17.90;99.90;;;;;;5058520;28;20444;-58
2023/09/07 00:52:49;;;;;;;7.47;6.00;;;17.90;99.90;;;;;;5079855;22;20566;-58
2023/09/07 00:55:16;;;;;;;6.37;5.30;;;17.90;99.90;;;;;;5056180;28;20435;-59
2023/09/07 00:57:43;;;;;;;7.43;5.40;;;17.90;99.90;;;;;;5056174;28;20634;-59
2023/09/07 01:00:11;;;;;;;7.50;5.67;;;17.80;99.90;;;;;;5056196;28;20455;-59
2023/09/07 01:02:38;;;;;;;10.30;6.10;;;17.80;99.90;;;;;;5056076;28;20467;-59
2023/09/07 01:05:06;;;;;;;8.23;5.70;;;17.80;99.90;;;;;;5055713;28;20946;-59
2023/09/07 01:07:38;;;;;;;5.23;4.80;;;17.70;99.90;;;;;;5056099;28;20440;-59
2023/09/07 01:10:07;;;;;;;6.87;6.17;;;17.70;99.90;;;;;;5056077;28;20428;-59
2023/09/07 01:12:33;;;;;;;8.37;6.63;;;17.70;99.90;;;;;;5055886;28;20470;-59
2023/09/07 01:15:01;;;;;;;7.80;6.17;;;17.60;99.90;;;;;;5055828;28;20444;-60
2023/09/07 01:17:28;;;;;;;7.57;6.80;;;17.60;99.90;;;;;;5055574;28;20483;-60
2023/09/07 01:19:59;;;;;;;7.50;6.27;;;17.60;99.90;;;;;;5056320;28;20440;-60
2023/09/07 01:22:27;;;;;;;6.80;6.10;;;17.60;99.90;;;;;;5056987;28;20468;-60
2023/09/07 01:24:54;;;;;;;8.30;6.30;;;17.50;99.90;;;;;;5056579;28;20779;-58
2023/09/07 01:27:21;;;;;;;7.57;6.20;;;17.50;99.90;;;;;;5056228;28;20929;-59
2023/09/07 01:29:48;;;;;;;9.17;6.57;;;17.50;99.90;;;;;;5056740;28;20444;-60
2023/09/07 01:32:15;;;;;;;6.40;5.77;;;17.50;99.90;;;;;;5056278;28;20459;-59
2023/09/07 01:34:41;;;;;;;7.60;5.83;;;17.40;99.90;;;;;;5055842;28;20444;-59
2023/09/07 01:37:08;;;;;;;8.20;5.97;;;17.40;99.90;;;;;;5056349;28;20495;-59
2023/09/07 01:39:36;;;;;;;8.83;6.77;;;17.30;99.90;;;;;;5054583;28;20794;-59
2023/09/07 01:42:03;;;;;;;8.37;6.30;;;17.30;99.90;;;;;;5055564;28;20440;-59
2023/09/07 01:44:30;;;;;;;6.90;6.20;;;17.30;99.90;;;;;;5055538;28;20443;-59
2023/09/07 01:46:57;;;;;;;6.60;5.83;;;17.30;99.90;;;;;;5055026;28;20809;-59
2023/09/07 01:49:24;;;;;;;8.20;6.10;;;17.30;99.90;;;;;;5055831;28;20440;-59
2023/09/07 01:51:53;;;;;;;10.23;6.37;;;17.30;99.90;;;;;;5055259;28;20439;-58
2023/09/07 01:54:21;;;;;;;8.10;6.53;;;17.20;99.90;;;;;;5054691;28;20452;-58
2023/09/07 01:56:49;;;;;;;8.33;6.20;;;17.20;99.90;;;;;;5055067;28;20451;-59
2023/09/07 01:59:16;;;;;;;6.80;6.10;;;17.20;99.90;;;;;;5055074;28;20440;-58
2023/09/07 02:01:43;;;;;;;7.30;6.07;;;17.20;99.90;;;;;;5055130;28;20443;-59
2023/09/07 02:04:10;;;;;;;7.80;6.33;;;17.10;99.90;;;;;;5054989;28;20830;-58
2023/09/07 02:06:36;;;;;;;7.80;7.00;;;17.10;99.90;;;;;;5054663;28;20914;-58
2023/09/07 02:09:04;;;;;;;9.47;6.77;;;17.10;99.90;;;;;;5054911;28;20432;-60
2023/09/07 02:11:30;;;;;;;7.77;6.57;;;17.00;99.90;;;;;;5054944;28;20534;-59
2023/09/07 02:13:59;;;;;;;8.33;6.37;;;17.00;99.90;;;;;;5054729;28;20483;-58
2023/09/07 02:16:26;;;;;;;7.90;6.87;;;17.00;99.90;;;;;;5054492;28;20442;-59
2023/09/07 02:19:02;;;;;;;8.03;6.70;;;17.00;99.90;;;;;;5054726;28;20519;-60
2023/09/07 02:21:28;;;;;;;8.67;5.93;;;16.90;99.90;;;;;;5054479;28;20434;-59
2023/09/07 02:23:55;;;;;;;7.37;6.53;;;16.90;99.90;;;;;;5054546;28;20459;-59
2023/09/07 02:26:22;;;;;;;7.47;6.80;;;16.80;99.90;;;;;;5054444;28;20436;-59
2023/09/07 02:28:48;;;;;;;11.60;6.97;;;16.80;99.90;;;;;;5054619;28;20436;-59
2023/09/07 02:31:16;;;;;;;10.80;7.00;;;16.80;99.90;;;;;;5054459;28;20448;-59
2023/09/07 02:33:43;;;;;;;8.20;6.50;;;16.80;99.90;;;;;;5054287;28;20487;-59
2023/09/07 02:36:10;;;;;;;9.10;7.10;;;16.80;99.90;;;;;;5054510;28;20444;-61
2023/09/07 02:38:37;;;;;;;8.23;6.80;;;16.80;99.90;;;;;;5054342;28;20480;-58
2023/09/07 02:41:04;;;;;;;7.83;7.00;;;16.80;99.90;;;;;;5054206;28;20822;-60
2023/09/07 02:43:30;;;;;;;8.00;6.80;;;16.70;99.90;;;;;;5054006;28;20464;-59
2023/09/07 02:45:57;;;;;;;14.63;7.40;;;16.80;99.90;;;;;;5054279;28;21008;-60
2023/09/07 02:48:25;;;;;;;8.50;6.87;;;16.70;99.90;;;;;;5053970;28;20886;-59
2023/09/07 02:50:52;;;;;;;11.73;7.13;;;16.60;99.90;;;;;;5053353;28;20558;-59
2023/09/07 02:53:19;;;;;;;8.73;7.00;;;16.60;99.90;;;;;;5053970;28;20494;-59
2023/09/07 02:55:46;;;;;;;9.67;6.40;;;16.60;99.90;;;;;;5054329;28;20779;-60
2023/09/07 02:58:12;;;;;;;10.30;6.90;;;16.60;99.90;;;;;;5054158;28;20502;-60
2023/09/07 03:00:44;;;;;;;11.47;6.90;;;16.50;99.90;;;;;;5054057;28;20817;-58
2023/09/07 03:03:11;;;;;;;8.37;6.83;;;16.50;99.90;;;;;;5053483;28;20911;-61
2023/09/07 03:05:40;;;;;;;15.00;7.17;;;16.50;99.90;;;;;;5054040;28;20510;-60
2023/09/07 03:08:08;;;;;;;12.67;8.10;;;16.50;99.90;;;;;;5053868;28;20437;-59
2023/09/07 03:10:35;;;;;;;8.47;7.60;;;16.50;99.90;;;;;;5053574;28;20936;-60
2023/09/07 03:13:02;;;;;;;8.60;7.60;;;16.40;99.90;;;;;;5053721;28;20472;-61
2023/09/07 03:15:30;;;;;;;8.20;7.03;;;16.30;99.90;;;;;;5053781;28;20534;-58
2023/09/07 03:17:57;;;;;;;8.67;7.77;;;16.30;99.90;;;;;;5053623;28;20511;-58
2023/09/07 03:20:23;;;;;;;9.67;7.57;;;16.30;99.90;;;;;;5053744;28;20467;-59
2023/09/07 03:22:51;;;;;;;8.97;7.40;;;16.30;99.90;;;;;;5053144;28;20471;-59
2023/09/07 03:25:18;;;;;;;12.73;7.80;;;16.40;99.90;;;;;;5053253;28;20440;-58
2023/09/07 03:27:45;;;;;;;8.47;7.63;;;16.30;99.90;;;;;;5053286;28;20479;-59
2023/09/07 03:30:12;;;;;;;9.03;8.30;;;16.30;99.90;;;;;;5053397;28;20444;-59
2023/09/07 03:32:39;;;;;;;9.63;8.60;;;16.30;99.90;;;;;;5053030;28;20970;-59
2023/09/07 03:35:09;;;;;;;13.90;7.60;;;16.30;99.90;;;;;;5053243;28;20448;-59
2023/09/07 03:37:37;;;;;;;11.83;8.13;;;16.30;99.90;;;;;;5053270;28;20511;-58
2023/09/07 03:40:08;;;;;;;11.43;8.43;;;16.30;99.90;;;;;;5053374;28;20561;-59
2023/09/07 03:42:36;;;;;;;8.30;7.50;;;16.30;99.90;;;;;;5052846;28;20460;-59
2023/09/07 03:45:03;;;;;;;8.97;8.07;;;16.30;99.90;;;;;;5053091;28;20441;-59
2023/09/07 03:47:30;;;;;;;8.97;7.53;;;16.20;99.90;;;;;;5053072;28;20440;-59
2023/09/07 03:49:56;;;;;;;9.07;8.17;;;16.20;99.90;;;;;;5053605;28;20468;-59
2023/09/07 03:52:24;;;;;;;9.60;7.80;;;16.20;99.90;;;;;;5052833;28;20541;-59
2023/09/07 03:54:51;;;;;;;11.00;8.00;;;16.10;99.90;;;;;;5053655;28;20478;-60
2023/09/07 03:57:20;;;;;;;9.13;8.13;;;16.10;99.90;;;;;;5053003;28;20440;-60
2023/09/07 03:59:47;;;;;;;13.47;9.23;;;16.10;99.90;;;;;;5053453;28;20493;-60
2023/09/07 04:02:13;;;;;;;10.03;9.00;;;16.00;99.90;;;;;;5053510;28;20470;-59
2023/09/07 04:04:41;;;;;;;14.47;8.77;;;15.90;99.90;;;;;;5054789;28;20447;-60
2023/09/07 04:07:07;;;;;;;11.27;7.77;;;15.90;99.90;;;;;;5055147;28;20444;-60
2023/09/07 04:12:11;;;;;;;10.67;9.37;;;15.80;99.90;;;;;;5091846;28;20918;-58
2023/09/07 04:14:38;;;;;;;10.27;8.60;;;15.80;99.90;;;;;;5091023;28;20442;-59
2023/09/07 04:17:05;;;;;;;11.07;8.67;;;15.80;99.90;;;;;;5090958;28;20438;-59
2023/09/07 04:19:31;;;;;;;9.90;9.00;;;15.80;99.90;;;;;;5090718;28;20444;-59
2023/09/07 04:21:58;;;;;;;10.53;9.43;;;15.70;99.90;;;;;;5090313;28;20823;-59
2023/09/07 04:24:27;;;;;;;10.57;7.97;;;15.70;99.90;;;;;;5090247;28;20537;-60
2023/09/07 04:26:53;;;;;;;10.03;9.03;;;15.70;99.90;;;;;;5090382;28;20435;-58
2023/09/07 04:29:21;;;;;;;9.63;8.47;;;15.70;99.90;;;;;;5090309;28;20438;-57
2023/09/07 04:31:48;;;;;;;10.17;9.17;;;15.70;99.90;;;;;;5089865;28;20474;-59
2023/09/07 04:34:15;;;;;;;9.83;8.93;;;15.70;99.90;;;;;;5090267;28;20463;-60
2023/09/07 04:36:42;;;;;;;9.07;8.27;;;15.60;99.90;;;;;;5090167;28;20443;-60
2023/09/07 04:39:08;;;;;;;9.77;8.87;;;15.60;99.90;;;;;;5089978;28;20434;-60
2023/09/07 04:41:35;;;;;;;11.13;9.80;;;15.60;99.90;;;;;;5089735;28;20908;-59
2023/09/07 04:44:02;;;;;;;9.37;8.33;;;15.60;99.90;;;;;;5089901;28;20458;-61
2023/09/07 04:46:30;;;;;;;9.10;8.30;;;15.60;99.90;;;;;;5089949;28;20445;-59
2023/09/07 04:48:56;;;;;;;11.30;9.80;;;15.60;99.90;;;;;;5089748;28;20442;-60
2023/09/07 04:51:25;;;;;;;14.37;9.77;;;15.60;99.90;;;;;;5089736;28;20478;-60
2023/09/07 04:53:52;;;;;;;10.70;9.13;;;15.50;99.90;;;;;;5089752;28;20466;-60
2023/09/07 04:56:20;;;;;;;10.73;9.63;;;15.50;99.90;;;;;;5089462;28;20447;-59
2023/09/07 04:58:47;;;;;;;9.73;8.53;;;15.50;99.90;;;;;;5089624;28;20446;-59
2023/09/07 05:01:13;;;;;;;11.40;9.40;;;15.50;99.90;;;;;;5089118;28;20538;-60
2023/09/07 05:03:41;;;;;;;11.70;9.63;;;15.50;99.90;;;;;;5089563;28;20465;-60
2023/09/07 05:06:08;;;;;;;9.70;8.50;;;15.60;99.90;;;;;;5090363;28;20795;-60
2023/09/07 05:08:35;;;;;;;10.63;9.53;;;15.60;99.90;;;;;;5089606;28;20454;-60
2023/09/07 05:11:03;;;;;;;12.73;9.10;;;15.70;99.90;;;;;;5089171;28;21034;-59
2023/09/07 05:13:31;;;;;;;11.50;9.50;;;15.80;99.90;;;;;;5089367;28;20470;-59
2023/09/07 05:16:00;;;;;;;10.17;8.97;;;16.00;99.90;;;;;;5090141;28;20440;-60
2023/09/07 05:18:27;;;;;;;10.60;9.50;;;16.00;99.90;;;;;;5088936;28;20442;-61
2023/09/07 05:20:55;;;;;;;9.30;8.37;;;16.10;99.90;;;;;;5088866;28;20788;-60
2023/09/07 05:23:22;;;;;;;10.57;9.43;;;16.20;99.90;;;;;;5076728;28;20463;-60
2023/09/07 05:25:52;;;;;;;10.20;9.20;;;16.20;99.90;;;;;;5075671;28;20439;-60
2023/09/07 05:28:19;;;;;;;10.53;9.63;;;16.20;99.90;;;;;;5075720;28;20462;-60
2023/09/07 05:30:46;;;;;;;12.67;9.03;;;16.20;99.90;;;;;;5075636;28;20477;-60
2023/09/07 05:33:15;;;;;;;10.53;8.93;;;16.20;99.90;;;;;;5075579;28;20470;-60
2023/09/07 05:35:41;;;;;;;10.40;9.40;;;16.20;99.90;;;;;;5075563;28;20811;-60
2023/09/07 05:38:10;;;;;;;11.17;8.80;;;16.30;99.90;;;;;;5075947;28;20566;-60
2023/09/07 05:40:37;;;;;;;10.77;9.67;;;16.30;99.90;;;;;;5075903;28;20435;-60
2023/09/07 05:43:05;;;;;;;12.03;10.17;;;16.40;99.90;;;;;;5075458;28;20459;-60
2023/09/07 05:45:32;;;;;;;12.80;10.23;;;16.40;99.90;;;;;;5075750;28;20446;-60
2023/09/07 05:47:59;;;;;;;9.63;8.47;;;16.50;99.90;;;;;;5076220;28;20446;-59
2023/09/07 05:50:25;;;;;;;10.77;9.33;;;16.60;99.90;;;;;;5074977;28;20956;-60
2023/09/07 05:52:52;;;;;;;10.23;9.27;;;16.60;99.90;;;;;;5075633;28;20466;-61
2023/09/07 05:55:20;;;;;;;10.37;9.33;;;16.70;99.90;;;;;;5075545;28;20439;-60
2023/09/07 05:57:47;;;;;;;11.50;10.30;;;16.80;99.90;;;;;;5075143;28;20762;-60
2023/09/07 06:00:16;;;;;;;10.77;9.43;;;16.80;99.90;;;;;;5075246;28;20465;-60
2023/09/07 06:02:44;;;;;;;10.03;9.03;;;16.90;99.90;;;;;;5075310;28;20462;-58
2023/09/07 06:05:11;;;;;;;14.70;9.50;;;16.90;99.90;;;;;;5075366;28;20446;-60
2023/09/07 06:07:38;;;;;;;10.87;9.77;;;17.00;99.90;;;;;;5075025;28;20446;-60
2023/09/07 06:10:06;;;;;;;10.50;8.80;;;17.10;99.90;;;;;;5075009;28;20451;-60
2023/09/07 06:12:35;;;;;;;17.87;10.10;;;17.20;99.90;;;;;;5075070;28;20483;-60
2023/09/07 06:15:02;;;;;;;9.47;8.50;;;17.30;99.90;;;;;;5075542;28;20451;-59
2023/09/07 06:17:30;;;;;;;11.07;9.53;;;17.40;99.90;;;;;;5074498;28;20911;-59
2023/09/07 06:19:57;;;;;;;9.77;8.87;;;17.40;99.90;;;;;;5074972;28;20445;-59
2023/09/07 06:22:23;;;;;;;10.70;9.70;;;17.50;99.90;;;;;;5075636;28;20456;-59
2023/09/07 06:24:50;;;;;;;11.57;10.37;;;17.60;99.90;;;;;;5076245;28;20454;-60
2023/09/07 06:27:17;;;;;;;10.00;8.70;;;17.70;99.90;;;;;;5075367;28;20960;-60
2023/09/07 06:29:45;;;;;;;11.07;9.97;;;17.70;99.90;;;;;;5074853;28;20443;-60
2023/09/07 06:32:12;;;;;;;11.47;10.00;;;17.70;99.90;;;;;;5075114;28;20478;-60
2023/09/07 06:34:39;;;;;;;11.53;10.27;;;17.80;99.90;;;;;;5073515;28;20439;-60
2023/09/07 06:37:06;;;;;;;10.97;9.53;;;17.90;99.90;;;;;;5074871;28;20436;-61
2023/09/07 06:39:33;;;;;;;10.20;9.03;;;17.90;99.90;;;;;;5074571;28;20450;-60
2023/09/07 06:42:00;;;;;;;13.23;9.47;;;18.10;99.90;;;;;;5074459;28;20442;-61
2023/09/07 06:44:26;;;;;;;11.53;10.20;;;18.20;99.90;;;;;;5074900;28;20444;-61
2023/09/07 06:46:55;;;;;;;10.10;9.00;;;18.30;99.90;;;;;;5075122;28;20443;-61
2023/09/07 06:49:22;;;;;;;11.13;8.37;;;18.40;99.90;;;;;;5074380;28;21063;-60
2023/09/07 06:51:49;;;;;;;16.67;10.57;;;18.50;99.90;;;;;;5075051;28;20484;-62
2023/09/07 06:54:16;;;;;;;10.73;9.63;;;18.60;99.90;;;;;;5074890;28;20470;-61
2023/09/07 06:56:42;;;;;;;12.23;9.03;;;18.70;99.90;;;;;;5074544;28;20817;-61
2023/09/07 06:59:09;;;;;;;12.73;9.07;;;18.80;99.90;;;;;;5074538;28;20435;-59
2023/09/07 07:01:36;;;;;;;10.13;8.63;;;18.90;99.90;;;;;;5073773;28;20439;-60
2023/09/07 07:04:04;;;;;;;12.60;9.57;;;19.00;99.90;;;;;;5073628;28;20877;-61
2023/09/07 07:06:31;;;;;;;11.73;9.40;;;19.20;99.90;;;;;;5074299;28;20443;-60
2023/09/07 07:08:58;;;;;;;12.57;8.80;;;19.20;99.90;;;;;;5073340;28;20936;-61
2023/09/07 07:11:25;;;;;;;9.53;8.40;;;19.30;99.90;;;;;;5073382;28;20487;-62
2023/09/07 07:13:51;;;;;;;12.23;9.17;;;19.40;99.90;;;;;;5073351;28;20837;-60
2023/09/07 07:16:18;;;;;;;11.77;10.07;;;19.50;99.90;;;;;;5073745;28;20443;-61
2023/09/07 07:18:45;;;;;;;11.37;8.70;;;19.50;99.90;;;;;;5073932;28;20446;-61
2023/09/07 07:21:13;;;;;;;11.30;8.53;;;19.50;99.90;;;;;;5073612;28;20522;-61
2023/09/07 07:23:40;;;;;;;15.00;9.10;;;19.60;99.90;;;;;;5073399;28;20999;-62
2023/09/07 07:26:06;;;;;;;9.03;8.13;;;19.70;99.90;;;;;;5073814;28;20435;-62
2023/09/07 07:28:33;;;;;;;12.43;8.47;;;19.90;99.90;;;;;;5073096;28;20952;-61
2023/09/07 07:31:07;;;;;;;8.97;8.07;;;20.00;99.90;;;;;;5073166;28;20435;-61
2023/09/07 07:33:34;;;;;;;9.23;8.13;;;20.10;99.90;;;;;;5073711;28;20466;-62
2023/09/07 07:36:00;;;;;;;8.83;7.93;;;20.20;99.90;;;;;;5072996;28;20442;-61
2023/09/07 07:38:28;;;;;;;10.43;8.07;;;20.40;99.90;;;;;;5073507;28;20439;-62
2023/09/07 07:40:55;;;;;;;9.17;8.27;;;20.40;99.90;;;;;;5073226;28;20446;-62
2023/09/07 07:43:22;;;;;;;9.13;8.17;;;20.50;99.90;;;;;;5073307;28;20467;-61
2023/09/07 07:45:48;;;;;;;9.97;8.63;;;20.60;99.50;;;;;;5072912;28;20439;-60
2023/09/07 07:48:15;;;;;;;9.70;8.70;;;20.70;99.20;;;;;;5073471;28;20447;-61
2023/09/07 07:50:43;;;;;;;9.60;8.03;;;20.80;98.90;;;;;;5074171;28;20447;-61
2023/09/07 07:53:10;;;;;;;8.90;8.00;;;20.90;98.50;;;;;;5074286;28;20532;-61
2023/09/07 07:55:39;;;;;;;9.23;8.27;;;21.10;98.20;;;;;;5073522;28;20442;-61
2023/09/07 07:58:07;;;;;;;8.10;7.17;;;21.20;97.60;;;;;;5073016;28;20975;-61
2023/09/07 08:00:34;;;;;;;8.23;7.10;;;21.30;97.00;;;;;;5073715;28;20443;-61
2023/09/07 08:03:02;;;;;;;11.47;7.30;;;21.50;96.50;;;;;;5073699;28;20455;-62
2023/09/07 08:05:28;;;;;;;10.33;7.40;;;21.60;96.20;;;;;;5073685;28;20526;-61
2023/09/07 08:07:55;;;;;;;8.53;7.23;;;21.70;95.80;;;;;;5073290;28;20447;-61
2023/09/07 08:10:22;;;;;;;9.83;7.10;;;21.90;95.30;;;;;;5072653;28;20469;-61
2023/09/07 08:12:54;;;;;;;9.47;7.90;;;21.90;94.80;;;;;;5072728;28;20491;-61
2023/09/07 08:15:22;;;;;;;8.43;7.60;;;22.00;94.40;;;;;;5072987;28;20909;-61
2023/09/07 08:17:49;;;;;;;7.07;6.47;;;22.10;94.10;;;;;;5073168;28;20538;-61
2023/09/07 08:20:16;;;;;;;12.03;6.63;;;22.30;93.60;;;;;;5072809;28;20449;-61
2023/09/07 08:22:44;;;;;;;9.47;7.10;;;22.40;93.10;;;;;;5072727;28;20459;-61
2023/09/07 08:25:12;;;;;;;7.30;6.60;;;22.50;92.60;;;;;;5073011;28;20440;-60
2023/09/07 08:27:41;;;;;;;12.10;7.27;;;22.60;92.10;;;;;;5073784;28;20453;-62
2023/09/07 08:30:11;;;;;;;8.10;6.90;;;22.70;91.70;;;;;;5075680;28;20472;-62
2023/09/07 08:32:39;;;;;;;7.93;7.13;;;22.80;91.10;;;;;;5073468;28;20489;-61
2023/09/07 08:35:07;;;;;;;7.07;6.37;;;23.00;90.60;;;;;;5073641;28;20443;-62
2023/09/07 08:37:34;;;;;;;7.80;7.00;;;23.10;89.90;;;;;;5073594;28;20816;-63
2023/09/07 08:40:02;;;;;;;8.37;6.70;;;23.20;88.70;;;;;;5073525;28;20441;-61
2023/09/07 08:42:29;;;;;;;6.97;6.27;;;23.30;87.40;;;;;;5072838;28;20887;-62
2023/09/07 08:44:58;;;;;;;6.47;5.83;;;23.30;86.40;;;;;;5073228;28;20446;-60
2023/09/07 08:47:30;;;;;;;7.37;6.10;;;23.40;85.70;;;;;;5073939;28;20446;-61
2023/09/07 08:49:58;;;;;;;8.20;6.80;;;23.50;84.80;;;;;;5074271;28;20443;-61
2023/09/07 08:52:25;;;;;;;7.90;7.20;;;23.70;83.80;;;;;;5073814;28;20490;-61
2023/09/07 08:54:53;;;;;;;9.03;6.20;;;23.70;82.70;;;;;;5073384;28;20435;-61
2023/09/07 08:57:21;;;;;;;8.27;6.10;;;23.80;81.70;;;;;;5074031;28;20435;-61
2023/09/07 08:59:48;;;;;;;7.23;5.87;;;23.90;80.90;;;;;;5077205;28;20439;-62
2023/09/07 09:02:16;;;;;;;6.23;5.60;;;24.00;79.80;;;;;;5077321;28;20478;-61
2023/09/07 09:04:44;;;;;;;6.10;5.50;;;24.10;78.70;;;;;;5076796;28;20556;-61
2023/09/07 09:07:11;;;;;;;8.13;7.10;;;24.20;77.90;;;;;;5076267;28;20443;-62
2023/09/07 09:09:38;;;;;;;7.20;6.27;;;24.40;77.00;;;;;;5075588;28;20442;-61
2023/09/07 09:12:09;;;;;;;9.53;5.63;;;24.50;76.10;;;;;;5075390;28;20489;-62
2023/09/07 09:14:35;;;;;;;9.70;5.73;;;24.60;74.70;;;;;;5075979;28;20443;-61
2023/09/07 09:17:02;;;;;;;8.80;5.77;;;24.60;73.80;;;;;;5076027;28;20439;-61
2023/09/07 09:19:33;;;;;;;8.10;6.80;;;24.70;73.10;;;;;;5075893;28;20449;-62
2023/09/07 09:22:03;;;;;;;6.27;5.67;;;24.70;72.50;;;;;;5075688;28;20863;-61
2023/09/07 09:24:33;;;;;;;8.40;6.07;;;24.80;72.10;;;;;;5075718;28;20477;-61
2023/09/07 09:27:00;;;;;;;6.57;5.97;;;24.90;72.00;;;;;;5076098;28;20500;-62
2023/09/07 09:29:27;;;;;;;6.90;5.93;;;25.10;70.60;;;;;;5076527;28;20454;-62
2023/09/07 09:31:54;;;;;;;6.87;4.93;;;25.10;69.50;;;;;;5075819;28;20478;-61
2023/09/07 09:34:21;;;;;;;6.53;5.83;;;25.20;69.00;;;;;;5076178;28;20443;-62
2023/09/07 09:36:48;;;;;;;7.33;6.20;;;25.30;68.40;;;;;;5076171;28;20443;-61
2023/09/07 09:39:24;;;;;;;9.70;6.90;;;25.40;67.70;;;;;;5076122;28;20439;-61
2023/09/07 09:41:51;;;;;;;6.93;6.20;;;25.40;66.80;;;;;;5076124;28;20565;-61
2023/09/07 09:44:21;;;;;;;8.13;5.67;;;25.50;66.50;;;;;;5075634;28;20512;-62
2023/09/07 09:46:50;;;;;;;9.03;5.57;;;25.50;66.20;;;;;;5075541;28;20442;-61
2023/09/07 09:49:18;;;;;;;6.90;6.20;;;25.50;65.80;;;;;;5075396;28;20439;-62
2023/09/07 09:51:48;;;;;;;7.20;5.90;;;25.60;65.50;;;;;;5075259;28;20500;-62
2023/09/07 09:54:17;;;;;;;8.50;6.70;;;25.60;64.90;;;;;;5075291;28;20459;-62
2023/09/07 09:56:45;;;;;;;6.97;5.73;;;25.60;64.30;;;;;;5075584;28;20547;-62
2023/09/07 09:59:13;;;;;;;8.97;6.00;;;25.60;63.90;;;;;;5075632;28;20521;-62
2023/09/07 10:01:44;;;;;;;5.80;5.10;;;25.70;63.90;;;;;;5074940;28;20955;-62
2023/09/07 10:04:12;;;;;;;7.27;6.50;;;25.70;63.70;;;;;;5075267;28;20513;-62
2023/09/07 10:06:39;;;;;;;7.10;6.23;;;25.80;63.50;;;;;;5074850;28;20443;-62
2023/09/07 10:09:10;;;;;;;10.17;6.33;;;25.90;63.30;;;;;;5075070;28;20443;-62
2023/09/07 10:11:38;;;;;;;6.63;6.03;;;25.90;62.70;;;;;;5074609;28;20486;-62
2023/09/07 10:14:08;;;;;;;9.43;6.03;;;26.00;62.30;;;;;;5074537;28;20470;-63
2023/09/07 10:16:44;;;;;;;7.90;5.90;;;26.00;61.90;;;;;;5074337;28;20820;-62
2023/09/07 10:19:18;;;;;;;8.27;6.40;;;26.10;61.60;;;;;;5075293;28;20447;-63
2023/09/07 10:21:45;;;;;;;8.20;5.67;;;26.20;61.20;;;;;;5074843;28;20462;-62
2023/09/07 10:24:12;;;;;;;13.23;6.50;;;26.20;60.80;;;;;;5074572;28;20498;-62
2023/09/07 10:26:39;;;;;;;7.03;5.73;;;26.20;60.70;;;;;;5074609;28;20804;-63
2023/09/07 10:29:07;;;;;;;10.63;6.07;;;26.40;60.50;;;;;;5074218;28;20959;-62
2023/09/07 10:31:34;;;;;;;7.13;6.23;;;26.40;60.00;;;;;;5074291;28;20799;-62
2023/09/07 10:34:10;;;;;;;6.83;5.80;;;26.60;59.90;;;;;;5074232;28;20486;-62
2023/09/07 10:36:38;;;;;;;8.00;6.17;;;26.70;59.30;;;;;;5074102;28;20438;-61
2023/09/07 10:39:08;;;;;;;7.73;6.17;;;26.70;59.00;;;;;;5073947;28;20526;-62
2023/09/07 10:41:42;;;;;;;6.67;5.90;;;26.80;58.60;;;;;;5074017;28;20430;-62
2023/09/07 10:44:12;;;;;;;7.13;5.77;;;26.80;58.30;;;;;;5074408;28;20466;-62
2023/09/07 10:46:39;;;;;;;7.23;5.17;;;26.90;58.20;;;;;;5074040;28;20475;-63
2023/09/07 10:49:10;;;;;;;8.17;6.10;;;26.90;58.10;;;;;;5074124;28;20443;-63
2023/09/07 10:51:43;;;;;;;7.10;5.90;;;27.00;58.00;;;;;;5074117;28;20426;-63
2023/09/07 10:54:16;;;;;;;7.70;5.47;;;27.10;57.80;;;;;;5073701;28;20509;-62
2023/09/07 10:56:45;;;;;;;8.80;5.10;;;27.20;57.40;;;;;;5074195;28;20454;-63
2023/09/07 10:59:14;;;;;;;7.70;5.90;;;27.20;57.00;;;;;;5074230;28;20447;-62
2023/09/07 11:01:41;;;;;;;9.60;6.10;;;27.20;57.00;;;;;;5073374;28;20454;-62
2023/09/07 11:04:10;;;;;;;8.80;7.30;;;27.40;57.50;;;;;;5073511;28;21002;-62
2023/09/07 11:06:38;;;;;;;6.33;5.60;;;27.50;56.40;;;;;;5073632;28;20458;-62
2023/09/07 11:09:08;;;;;;;8.77;6.07;;;27.60;56.20;;;;;;5073910;28;20443;-62
2023/09/07 11:11:35;;;;;;;6.53;5.93;;;27.70;55.80;;;;;;5073264;28;20509;-62
2023/09/07 11:14:04;;;;;;;9.33;6.40;;;27.70;55.50;;;;;;5073596;28;20487;-62
2023/09/07 11:16:34;;;;;;;6.50;5.70;;;27.80;55.00;;;;;;5073462;28;20489;-62
2023/09/07 11:19:04;;;;;;;7.53;5.57;;;27.80;54.60;;;;;;5073224;28;20450;-62
2023/09/07 11:21:32;;;;;;;8.47;4.97;;;27.80;54.20;;;;;;5072937;28;20427;-62
2023/09/07 11:23:59;;;;;;;7.10;5.80;;;27.80;54.10;;;;;;5073471;28;20471;-62
2023/09/07 11:26:26;;;;;;;6.27;5.70;;;27.80;54.10;;;;;;5074112;28;20814;-62
2023/09/07 11:28:53;;;;;;;5.60;5.00;;;27.80;54.00;;;;;;5073673;28;20932;-62
2023/09/07 11:31:21;;;;;;;6.60;5.23;;;27.80;53.90;;;;;;5073529;28;20945;-62
2023/09/07 11:33:49;;;;;;;6.33;5.73;;;27.80;53.50;;;;;;5073711;28;20487;-62
2023/09/07 11:36:16;;;;;;;5.77;5.00;;;27.80;53.30;;;;;;5074305;28;20473;-62
2023/09/07 11:38:44;;;;;;;6.00;5.20;;;27.80;53.10;;;;;;5074899;28;20818;-62
2023/09/07 11:41:11;;;;;;;5.83;5.37;;;27.90;53.10;;;;;;5074589;28;20447;-62
2023/09/07 11:43:39;;;;;;;7.00;6.20;;;28.10;53.10;;;;;;5073884;28;20459;-62
2023/09/07 11:46:06;;;;;;;5.60;5.10;;;28.30;52.70;;;;;;5073993;28;20998;-62
2023/09/07 11:48:34;;;;;;;6.67;5.30;;;28.30;52.30;;;;;;5074205;28;20446;-63
2023/09/07 11:51:02;;;;;;;5.90;5.20;;;28.40;52.20;;;;;;5073061;28;20963;-62
2023/09/07 11:53:29;;;;;;;6.10;5.50;;;28.50;52.00;;;;;;5073863;28;20489;-63
2023/09/07 11:55:57;;;;;;;8.07;5.50;;;28.50;51.90;;;;;;5073767;28;20449;-63
2023/09/07 11:58:26;;;;;;;5.63;4.93;;;28.60;51.40;;;;;;5073358;28;20999;-62
2023/09/07 12:00:53;;;;;;;6.97;5.93;;;28.50;51.30;;;;;;5073482;28;20496;-62
2023/09/07 12:03:23;;;;;;;6.60;5.90;;;28.60;51.50;;;;;;5073852;28;20459;-62
2023/09/07 12:05:49;;;;;;;6.20;4.43;;;28.60;51.50;;;;;;5073636;28;20469;-62
2023/09/07 12:08:18;;;;;;;8.30;4.80;;;28.70;51.10;;;;;;5073345;28;20450;-62
2023/09/07 12:10:44;;;;;;;6.63;5.47;;;28.70;50.50;;;;;;5072804;28;20451;-60
2023/09/07 12:13:11;;;;;;;8.80;5.10;;;28.80;50.20;;;;;;5073380;28;20851;-62
2023/09/07 12:15:38;;;;;;;6.33;5.17;;;28.90;50.10;;;;;;5073549;28;20454;-62
2023/09/07 12:18:05;;;;;;;6.70;5.07;;;28.90;50.10;;;;;;5073867;28;20438;-63
2023/09/07 12:20:32;;;;;;;5.13;4.60;;;28.90;50.00;;;;;;5074101;28;20443;-64
2023/09/07 12:22:58;;;;;;;6.53;5.20;;;28.90;49.80;;;;;;5073867;28;20455;-62
2023/09/07 12:25:27;;;;;;;5.50;5.00;;;28.90;49.40;;;;;;5073389;28;20443;-62
2023/09/07 12:27:53;;;;;;;5.50;4.67;;;28.90;49.30;;;;;;5073374;28;20447;-62
2023/09/07 12:30:22;;;;;;;5.90;5.40;;;29.00;49.30;;;;;;5073890;28;20465;-63
2023/09/07 12:32:49;;;;;;;5.27;4.53;;;29.00;48.90;;;;;;5076640;28;20583;-63
2023/09/07 12:35:16;;;;;;;5.37;4.87;;;29.00;48.60;;;;;;5078501;28;20450;-63
2023/09/07 12:37:43;;;;;;;4.30;3.90;;;29.10;48.30;;;;;;5078015;28;20454;-63
2023/09/07 12:40:12;;;;;;;8.70;4.73;;;29.20;48.10;;;;;;5077785;28;20445;-62
2023/09/07 12:42:41;;;;;;;9.00;4.40;;;29.30;47.90;;;;;;5077524;28;20459;-62
2023/09/07 12:45:10;;;;;;;5.63;3.97;;;29.40;47.30;;;;;;5077677;28;20442;-61
2023/09/07 12:47:37;;;;;;;4.47;4.07;;;29.40;46.80;;;;;;5077073;28;20877;-62